createdAt,value
2017-10-20T00:02:08.759Z,13.79
2017-10-20T00:04:35.269Z,13.54
2017-10-20T00:07:01.543Z,13.46
2017-10-20T00:09:27.809Z,13.58
2017-10-20T00:11:54.866Z,13.52
2017-10-20T00:14:21.149Z,13.53
2017-10-20T00:16:47.422Z,13.73
2017-10-20T00:19:13.713Z,13.68
2017-10-20T00:21:40.024Z,13.66
2017-10-20T00:24:06.318Z,13.55
2017-10-20T00:26:32.580Z,13.56
2017-10-20T00:28:58.863Z,13.72
2017-10-20T00:31:25.961Z,13.61
2017-10-20T00:33:52.241Z,13.46
2017-10-20T00:36:19.282Z,13.61
2017-10-20T00:38:46.354Z,13.57
2017-10-20T00:41:12.666Z,13.61
2017-10-20T00:43:39.692Z,13.54
2017-10-20T00:46:06.736Z,13.59
2017-10-20T00:48:33.065Z,13.67
2017-10-20T00:50:59.366Z,13.96
2017-10-20T00:53:25.736Z,13.97
2017-10-20T00:55:52.794Z,13.82
2017-10-20T00:58:19.845Z,13.75
2017-10-20T01:00:46.918Z,13.61
2017-10-20T01:03:13.225Z,13.67
2017-10-20T01:05:39.473Z,13.67
2017-10-20T01:08:05.798Z,13.71
2017-10-20T01:10:32.126Z,13.66
2017-10-20T01:12:58.434Z,13.64
2017-10-20T01:15:25.493Z,13.40
2017-10-20T01:17:51.825Z,13.29
2017-10-20T01:20:18.164Z,13.33
2017-10-20T01:22:44.495Z,13.31
2017-10-20T01:25:10.817Z,13.37
2017-10-20T01:27:37.155Z,13.21
2017-10-20T01:30:03.462Z,13.22
2017-10-20T01:32:30.534Z,13.20
2017-10-20T01:34:57.072Z,13.23
2017-10-20T01:37:23.373Z,13.28
2017-10-20T01:39:50.442Z,13.24
2017-10-20T01:42:16.768Z,13.34
2017-10-20T01:44:43.078Z,13.51
2017-10-20T01:47:10.141Z,13.43
2017-10-20T01:49:36.461Z,13.50
2017-10-20T01:52:03.512Z,13.54
2017-10-20T01:54:30.560Z,13.55
2017-10-20T01:56:57.833Z,13.48
2017-10-20T01:59:24.158Z,13.68
2017-10-20T02:01:50.474Z,13.57
2017-10-20T02:04:17.511Z,13.62
2017-10-20T02:06:44.573Z,13.54
2017-10-20T02:09:11.117Z,13.57
2017-10-20T02:11:37.413Z,13.61
2017-10-20T02:14:03.688Z,13.56
2017-10-20T02:16:30.039Z,13.51
2017-10-20T02:18:56.349Z,13.49
2017-10-20T02:21:22.629Z,13.61
2017-10-20T02:23:49.110Z,13.33
2017-10-20T02:26:15.418Z,13.32
2017-10-20T02:28:41.713Z,13.21
2017-10-20T02:31:08.070Z,13.40
2017-10-20T02:33:35.091Z,13.42
2017-10-20T02:36:01.395Z,13.59
2017-10-20T02:38:27.714Z,13.37
2017-10-20T02:40:54.017Z,13.39
2017-10-20T02:43:20.289Z,13.56
2017-10-20T02:45:46.794Z,13.42
2017-10-20T02:48:13.093Z,13.37
2017-10-20T02:50:40.152Z,13.28
2017-10-20T02:53:07.258Z,13.27
2017-10-20T02:55:33.558Z,13.45
2017-10-20T02:57:59.854Z,13.37
2017-10-20T03:00:26.501Z,13.27
2017-10-20T03:02:52.793Z,13.50
2017-10-20T03:05:19.111Z,13.31
2017-10-20T03:07:45.476Z,13.55
2017-10-20T03:10:12.493Z,13.40
2017-10-20T03:12:38.832Z,13.63
2017-10-20T03:15:05.213Z,13.36
2017-10-20T03:17:31.473Z,13.38
2017-10-20T03:19:57.744Z,13.30
2017-10-20T03:22:24.779Z,13.36
2017-10-20T03:24:51.075Z,13.69
2017-10-20T03:27:17.367Z,13.68
2017-10-20T03:29:43.704Z,13.84
2017-10-20T03:32:11.051Z,13.61
2017-10-20T03:34:37.356Z,13.63
2017-10-20T03:37:04.389Z,13.54
2017-10-20T03:39:30.668Z,13.63
2017-10-20T03:41:57.297Z,13.77
2017-10-20T03:44:23.546Z,13.61
2017-10-20T03:46:49.830Z,13.75
2017-10-20T03:49:16.884Z,13.42
2017-10-20T03:51:43.928Z,13.36
2017-10-20T03:54:10.288Z,13.45
2017-10-20T03:56:36.587Z,13.52
2017-10-20T03:59:03.633Z,13.64
2017-10-20T04:01:30.691Z,13.70
2017-10-20T04:03:57.762Z,13.50
2017-10-20T04:06:24.069Z,13.56
2017-10-20T04:08:50.363Z,13.69
2017-10-20T04:11:16.945Z,13.47
2017-10-20T04:13:43.350Z,13.46
2017-10-20T04:16:10.421Z,13.35
2017-10-20T04:18:36.733Z,13.36
2017-10-20T04:21:04.017Z,13.52
2017-10-20T04:23:30.336Z,13.53
2017-10-20T04:25:56.604Z,13.56
2017-10-20T04:28:22.873Z,13.56
2017-10-20T04:30:49.900Z,13.43
2017-10-20T04:33:16.158Z,13.46
2017-10-20T04:35:43.178Z,13.32
2017-10-20T04:38:09.458Z,13.36
2017-10-20T04:40:35.745Z,13.34
2017-10-20T04:43:02.025Z,13.46
2017-10-20T04:45:28.344Z,13.63
2017-10-20T04:47:54.754Z,13.56
2017-10-20T04:50:21.757Z,13.55
2017-10-20T04:52:48.034Z,13.56
2017-10-20T04:55:15.165Z,13.59
2017-10-20T04:57:42.207Z,13.71
2017-10-20T05:00:09.225Z,13.50
2017-10-20T05:02:35.696Z,13.53
2017-10-20T05:05:02.727Z,13.38
2017-10-20T05:07:28.990Z,13.33
2017-10-20T05:09:55.282Z,13.41
2017-10-20T05:12:21.571Z,13.57
2017-10-20T05:14:47.864Z,13.48
2017-10-20T05:17:15.182Z,13.41
2017-10-20T05:19:41.449Z,13.39
2017-10-20T05:22:08.464Z,13.36
2017-10-20T05:24:34.781Z,13.33
2017-10-20T05:27:01.078Z,13.32
2017-10-20T05:29:27.351Z,13.39
2017-10-20T05:31:53.626Z,13.30
2017-10-20T05:34:19.896Z,13.26
2017-10-20T05:36:46.196Z,13.34
2017-10-20T05:39:12.739Z,13.41
2017-10-20T05:41:39.049Z,13.44
2017-10-20T05:44:05.333Z,13.41
2017-10-20T05:46:31.608Z,13.49
2017-10-20T05:48:58.133Z,13.48
2017-10-20T05:51:25.261Z,13.53
2017-10-20T05:53:51.565Z,13.71
2017-10-20T05:56:18.687Z,13.65
2017-10-20T05:58:45.023Z,13.62
2017-10-20T06:01:11.308Z,13.58
2017-10-20T06:03:38.313Z,13.39
2017-10-20T06:06:04.586Z,13.42
2017-10-20T06:08:31.608Z,13.57
2017-10-20T06:10:57.902Z,13.57
2017-10-20T06:13:24.174Z,13.55
2017-10-20T06:15:50.434Z,13.51
2017-10-20T06:18:17.457Z,13.65
2017-10-20T06:20:44.474Z,13.39
2017-10-20T06:23:10.751Z,13.50
2017-10-20T06:25:37.840Z,13.52
2017-10-20T06:28:04.114Z,13.43
2017-10-20T06:30:31.121Z,13.32
2017-10-20T06:32:57.420Z,13.48
2017-10-20T06:35:23.715Z,13.31
2017-10-20T06:37:50.017Z,13.36
2017-10-20T06:40:16.360Z,13.46
2017-10-20T06:42:42.721Z,13.42
2017-10-20T06:45:09.783Z,13.58
2017-10-20T06:47:36.126Z,13.74
2017-10-20T06:50:02.473Z,13.73
2017-10-20T06:52:28.750Z,13.70
2017-10-20T06:54:55.767Z,13.56
2017-10-20T06:57:22.135Z,13.59
2017-10-20T06:59:50.541Z,13.60
2017-10-20T07:02:16.906Z,13.76
2017-10-20T07:04:43.209Z,13.90
2017-10-20T07:07:09.512Z,13.79
2017-10-20T07:09:36.614Z,13.67
2017-10-20T07:12:02.926Z,13.63
2017-10-20T07:14:29.252Z,13.65
2017-10-20T07:16:55.588Z,13.78
2017-10-20T07:19:24.837Z,13.84
2017-10-20T07:21:51.963Z,14.19
2017-10-20T07:24:18.320Z,13.96
2017-10-20T07:26:45.460Z,14.03
2017-10-20T07:29:11.743Z,14.16
2017-10-20T07:31:38.049Z,14.04
2017-10-20T07:34:05.111Z,13.90
2017-10-20T07:36:31.425Z,14.03
2017-10-20T07:38:57.734Z,14.13
2017-10-20T07:41:24.770Z,14.22
2017-10-20T07:43:51.809Z,14.17
2017-10-20T07:46:18.098Z,14.10
2017-10-20T07:48:44.737Z,14.23
2017-10-20T07:51:11.017Z,14.29
2017-10-20T07:53:38.069Z,14.41
2017-10-20T07:56:05.101Z,14.28
2017-10-20T07:58:31.385Z,14.39
2017-10-20T08:00:57.703Z,14.35
2017-10-20T08:03:24.093Z,14.57
2017-10-20T08:05:50.351Z,14.56
2017-10-20T08:08:17.394Z,14.62
2017-10-20T08:10:44.725Z,14.56
2017-10-20T08:13:10.995Z,14.52
2017-10-20T08:15:37.281Z,14.72
2017-10-20T08:18:03.606Z,14.60
2017-10-20T08:20:29.892Z,14.54
2017-10-20T08:22:56.165Z,14.40
2017-10-20T08:25:22.418Z,14.38
2017-10-20T08:27:49.477Z,14.43
2017-10-20T08:30:16.480Z,14.50
2017-10-20T08:32:42.759Z,14.73
2017-10-20T08:35:09.306Z,14.83
2017-10-20T08:37:35.583Z,15.12
2017-10-20T08:40:01.862Z,14.93
2017-10-20T08:42:28.705Z,15.10
2017-10-20T08:44:55.058Z,15.09
2017-10-20T08:47:21.384Z,15.08
2017-10-20T08:49:47.698Z,15.15
2017-10-20T08:52:14.017Z,15.11
2017-10-20T08:54:40.371Z,15.22
2017-10-20T08:57:06.653Z,15.29
2017-10-20T08:59:33.656Z,15.42
2017-10-20T09:01:59.991Z,15.58
2017-10-20T09:04:26.277Z,15.50
2017-10-20T09:06:53.289Z,15.45
2017-10-20T09:09:20.066Z,15.37
2017-10-20T09:11:46.349Z,15.41
2017-10-20T09:14:12.631Z,15.44
2017-10-20T09:16:39.275Z,15.47
2017-10-20T09:19:05.558Z,15.52
2017-10-20T09:21:31.834Z,15.61
2017-10-20T09:23:58.136Z,15.62
2017-10-20T09:26:25.179Z,15.59
2017-10-20T09:28:52.189Z,15.59
2017-10-20T09:31:18.725Z,15.62
2017-10-20T09:33:45.020Z,15.65
2017-10-20T09:36:11.314Z,15.65
2017-10-20T09:38:38.345Z,15.70
2017-10-20T09:41:04.625Z,15.61
2017-10-20T09:43:30.903Z,15.57
2017-10-20T09:45:57.169Z,15.61
2017-10-20T09:48:23.453Z,15.45
2017-10-20T09:50:49.861Z,15.41
2017-10-20T09:53:16.137Z,15.50
2017-10-20T09:55:43.147Z,15.52
2017-10-20T09:58:09.440Z,15.52
2017-10-20T10:00:35.717Z,15.50
2017-10-20T10:03:01.989Z,15.58
2017-10-20T10:05:28.325Z,15.54
2017-10-20T10:07:54.653Z,15.49
2017-10-20T10:10:21.015Z,15.59
2017-10-20T10:12:47.357Z,15.64
2017-10-20T10:15:13.654Z,15.64
2017-10-20T10:17:39.932Z,15.63
2017-10-20T10:20:06.229Z,15.65
2017-10-20T10:22:32.516Z,15.77
2017-10-20T10:24:59.545Z,15.91
2017-10-20T10:27:25.837Z,15.70
2017-10-20T10:29:52.142Z,15.63
2017-10-20T10:32:18.414Z,15.76
2017-10-20T10:34:44.930Z,15.94
2017-10-20T10:37:11.195Z,15.69
2017-10-20T10:39:37.466Z,15.70
2017-10-20T10:42:03.732Z,15.74
2017-10-20T10:44:30.026Z,15.60
2017-10-20T10:46:56.567Z,15.65
2017-10-20T10:49:22.842Z,15.62
2017-10-20T10:51:49.133Z,15.90
2017-10-20T10:54:15.466Z,15.88
2017-10-20T10:56:41.772Z,15.56
2017-10-20T10:59:08.081Z,15.58
2017-10-20T11:01:35.150Z,15.49
2017-10-20T11:04:01.416Z,15.47
2017-10-20T11:06:46.121Z,15.63
2017-10-20T11:09:17.221Z,15.74
2017-10-20T11:12:01.973Z,15.66
2017-10-20T11:14:28.291Z,15.59
2017-10-20T11:16:54.587Z,15.52
2017-10-20T11:19:21.626Z,15.48
2017-10-20T11:21:47.932Z,15.34
2017-10-20T11:24:14.239Z,15.49
2017-10-20T11:26:40.530Z,15.82
2017-10-20T11:29:07.594Z,15.75
2017-10-20T11:31:33.897Z,15.96
2017-10-20T11:34:00.917Z,15.88
2017-10-20T11:36:27.246Z,15.74
2017-10-20T11:38:53.749Z,15.86
2017-10-20T11:41:20.048Z,15.78
2017-10-20T11:43:47.083Z,15.64
2017-10-20T11:46:14.375Z,15.57
2017-10-20T11:48:40.656Z,15.51
2017-10-20T11:51:06.969Z,15.42
2017-10-20T11:53:33.323Z,15.47
2017-10-20T11:55:59.646Z,15.41
2017-10-20T11:58:25.933Z,15.29
2017-10-20T12:00:52.281Z,15.37
2017-10-20T12:03:18.588Z,15.44
2017-10-20T12:05:44.889Z,15.42
2017-10-20T12:08:11.950Z,15.62
2017-10-20T12:10:38.258Z,15.47
2017-10-20T12:13:05.302Z,15.52
2017-10-20T12:15:32.371Z,15.59
2017-10-20T12:17:58.644Z,15.45
2017-10-20T12:20:24.944Z,15.54
2017-10-20T12:22:51.258Z,15.60
2017-10-20T12:25:17.539Z,15.58
2017-10-20T12:27:43.832Z,15.64
2017-10-20T12:30:10.117Z,15.78
2017-10-20T12:32:36.398Z,15.77
2017-10-20T12:35:02.705Z,15.76
2017-10-20T12:37:31.009Z,16.00
2017-10-20T12:39:57.274Z,16.00
2017-10-20T12:42:23.561Z,15.91
2017-10-20T12:44:49.856Z,15.87
2017-10-20T12:47:17.344Z,15.88
2017-10-20T12:49:43.610Z,15.89
2017-10-20T12:52:09.890Z,16.09
2017-10-20T12:54:36.261Z,15.97
2017-10-20T12:57:02.570Z,16.11
2017-10-20T12:59:28.874Z,16.06
2017-10-20T13:01:55.181Z,16.10
2017-10-20T13:04:22.206Z,16.10
2017-10-20T13:06:48.516Z,16.14
2017-10-20T13:09:14.921Z,16.10
2017-10-20T13:11:41.212Z,16.13
2017-10-20T13:14:07.527Z,16.13
2017-10-20T13:16:34.125Z,16.03
2017-10-20T13:19:00.393Z,15.99
2017-10-20T13:21:26.689Z,15.94
2017-10-20T13:23:53.322Z,15.82
2017-10-20T13:26:19.621Z,15.81
2017-10-20T13:28:46.633Z,15.81
2017-10-20T13:31:12.914Z,15.86
2017-10-20T13:33:39.188Z,15.91
2017-10-20T13:36:05.493Z,15.92
2017-10-20T13:38:31.774Z,15.85
2017-10-20T13:40:59.070Z,16.01
2017-10-20T13:43:25.355Z,16.05
2017-10-20T13:45:51.638Z,16.11
2017-10-20T13:48:17.957Z,16.18
2017-10-20T13:50:44.269Z,16.27
2017-10-20T13:53:10.578Z,16.27
2017-10-20T13:55:37.614Z,16.23
2017-10-20T13:58:03.914Z,16.08
2017-10-20T14:00:30.345Z,16.00
2017-10-20T14:02:56.610Z,15.74
2017-10-20T14:05:22.885Z,15.79
2017-10-20T14:07:49.421Z,15.74
2017-10-20T14:10:15.711Z,15.73
2017-10-20T14:12:42.730Z,15.87
2017-10-20T14:15:09.050Z,15.68
2017-10-20T14:17:35.334Z,15.72
2017-10-20T14:20:02.495Z,15.62
2017-10-20T14:22:28.797Z,15.65
2017-10-20T14:24:55.809Z,15.63
2017-10-20T14:27:22.108Z,15.75
2017-10-20T14:29:48.438Z,15.94
2017-10-20T14:32:14.741Z,15.82
2017-10-20T14:34:41.757Z,15.78
2017-10-20T14:37:08.812Z,15.76
2017-10-20T14:39:35.113Z,15.83
2017-10-20T14:42:01.427Z,15.69
2017-10-20T14:44:27.697Z,15.75
2017-10-20T14:46:53.965Z,15.74
2017-10-20T14:49:20.578Z,15.60
2017-10-20T14:51:47.614Z,15.65
2017-10-20T14:54:13.906Z,15.57
2017-10-20T14:56:40.218Z,15.48
2017-10-20T14:59:06.501Z,15.40
2017-10-20T15:01:32.800Z,15.47
2017-10-20T15:03:59.094Z,15.40
2017-10-20T15:06:26.130Z,15.40
2017-10-20T15:08:53.161Z,15.40
2017-10-20T15:11:19.465Z,15.35
2017-10-20T15:13:45.725Z,15.43
2017-10-20T15:16:12.759Z,15.34
2017-10-20T15:18:39.055Z,15.42
2017-10-20T15:21:07.212Z,15.35
2017-10-20T15:23:33.615Z,15.30
2017-10-20T15:26:01.035Z,15.41
2017-10-20T15:28:32.006Z,15.31
2017-10-20T15:31:01.679Z,15.41
2017-10-20T15:33:32.689Z,15.49
2017-10-20T15:35:59.097Z,15.50
2017-10-20T15:38:32.547Z,15.48
2017-10-20T15:41:00.396Z,15.42
2017-10-20T15:43:40.675Z,15.53
2017-10-20T15:46:08.098Z,15.50
2017-10-20T15:48:34.478Z,15.39
2017-10-20T15:51:13.815Z,15.32
2017-10-20T15:53:41.234Z,15.43
2017-10-20T15:56:12.390Z,15.35
2017-10-20T15:58:38.890Z,15.26
2017-10-20T16:01:14.913Z,15.03
2017-10-20T16:03:43.826Z,14.91
2017-10-20T16:06:10.232Z,14.85
2017-10-20T16:08:37.635Z,14.87
2017-10-20T16:11:06.116Z,14.77
2017-10-20T16:13:35.336Z,14.78
2017-10-20T16:16:01.744Z,14.75
2017-10-20T16:18:28.114Z,14.77
2017-10-20T16:20:55.108Z,14.67
2017-10-20T16:23:21.591Z,14.61
2017-10-20T16:25:48.990Z,14.58
2017-10-20T16:28:18.180Z,14.53
2017-10-20T16:30:46.691Z,14.52
2017-10-20T16:35:53.014Z,14.49
2017-10-20T16:38:29.114Z,14.50
2017-10-20T16:40:55.795Z,14.46
2017-10-20T16:43:23.174Z,14.46
2017-10-20T16:45:50.264Z,14.46
2017-10-20T16:48:17.578Z,14.37
2017-10-20T16:50:47.536Z,14.38
2017-10-20T16:53:42.745Z,14.39
2017-10-20T16:56:10.115Z,14.40
2017-10-20T16:58:37.278Z,14.34
2017-10-20T17:01:18.480Z,14.33
2017-10-20T17:06:55.288Z,14.32
2017-10-20T17:09:29.546Z,14.31
2017-10-20T17:11:58.254Z,14.30
2017-10-20T17:14:25.301Z,14.30
2017-10-20T17:16:57.961Z,14.34
2017-10-20T17:19:25.437Z,14.34
2017-10-20T17:21:58.590Z,14.36
2017-10-20T17:24:29.191Z,14.36
2017-10-20T17:27:02.716Z,14.34
2017-10-20T17:29:53.974Z,14.31
2017-10-20T17:32:22.950Z,14.30
2017-10-20T17:35:03.558Z,14.31
2017-10-20T17:43:02.724Z,14.28
2017-10-20T17:59:33.463Z,14.20
2017-10-20T18:02:04.615Z,14.21
2017-10-20T18:04:32.124Z,14.26
2017-10-20T18:07:10.336Z,14.25
2017-10-20T18:09:44.123Z,14.25
2017-10-20T18:12:22.283Z,14.30
2017-10-20T18:14:57.408Z,14.33
2017-10-20T18:17:31.509Z,14.34
2017-10-20T18:22:47.618Z,14.32
2017-10-20T18:25:32.764Z,14.28
2017-10-20T18:28:11.192Z,14.30
2017-10-20T18:30:44.614Z,14.33
2017-10-20T18:33:19.307Z,14.31
2017-10-20T18:38:32.670Z,14.24
2017-10-20T18:41:03.775Z,14.23
2017-10-20T18:43:32.501Z,14.23
2017-10-20T18:46:08.978Z,14.22
2017-10-20T18:51:26.023Z,14.14
2017-10-20T18:53:55.068Z,14.05
2017-10-20T18:56:26.899Z,14.11
2017-10-20T18:58:54.994Z,14.10
2017-10-20T19:01:28.418Z,14.14
2017-10-20T19:04:04.926Z,14.20
2017-10-20T19:12:30.025Z,14.11
2017-10-20T19:15:16.252Z,14.16
2017-10-20T19:17:48.165Z,14.10
2017-10-20T19:20:19.529Z,14.07
2017-10-20T19:22:52.490Z,14.02
2017-10-20T19:28:12.866Z,13.88
2017-10-20T19:30:45.156Z,13.91
2017-10-20T19:33:17.736Z,13.94
2017-10-20T19:35:46.068Z,13.88
2017-10-20T19:38:14.195Z,13.78
2017-10-20T19:40:42.626Z,13.81
2017-10-20T19:43:09.346Z,13.76
2017-10-20T19:45:40.399Z,13.73
2017-10-20T19:48:06.811Z,13.80
2017-10-20T19:50:34.034Z,13.79
2017-10-20T19:53:00.434Z,13.70
2017-10-20T19:55:28.208Z,13.70
2017-10-20T19:57:57.674Z,13.66
2017-10-20T20:00:26.766Z,13.66
2017-10-20T20:02:54.163Z,13.63
2017-10-20T20:05:25.159Z,13.64
2017-10-20T20:07:56.050Z,13.70
2017-10-20T20:10:30.592Z,13.66
2017-10-20T20:13:02.352Z,13.66
2017-10-20T20:15:34.250Z,13.60
2017-10-20T20:18:07.071Z,13.59
2017-10-20T20:23:14.689Z,13.51
2017-10-20T20:25:50.145Z,13.48
2017-10-20T20:28:31.219Z,13.47
2017-10-20T20:31:02.957Z,13.38
2017-10-20T20:33:46.898Z,13.44
2017-10-20T20:36:23.283Z,13.43
2017-10-20T20:38:50.496Z,13.40
2017-10-20T20:41:17.629Z,13.44
2017-10-20T20:43:44.064Z,13.44
2017-10-20T20:46:17.989Z,13.48
2017-10-20T20:48:48.995Z,13.51
2017-10-20T20:51:17.186Z,13.50
2017-10-20T20:53:45.591Z,13.46
2017-10-20T20:56:12.073Z,13.38
2017-10-20T20:58:49.089Z,13.36
2017-10-20T21:01:21.175Z,13.37
2017-10-20T21:03:48.862Z,13.36
2017-10-20T21:06:17.409Z,13.31
2017-10-20T21:08:45.699Z,13.31
2017-10-20T21:11:15.132Z,13.28
2017-10-20T21:13:44.598Z,13.26
2017-10-20T21:16:14.363Z,13.25
2017-10-20T21:18:46.725Z,13.17
2017-10-20T21:21:13.337Z,13.11
2017-10-20T21:23:41.443Z,13.13
2017-10-20T21:26:10.752Z,13.06
2017-10-20T21:28:40.222Z,13.09
2017-10-20T21:31:08.519Z,13.05
2017-10-20T21:33:36.502Z,13.07
2017-10-20T21:36:03.965Z,13.12
2017-10-20T21:38:34.293Z,13.10
2017-10-20T21:41:02.719Z,13.09
2017-10-20T21:43:29.234Z,13.11
2017-10-20T21:45:55.795Z,13.10
2017-10-20T21:48:22.760Z,13.13
2017-10-20T21:50:50.975Z,13.15
2017-10-20T21:53:25.523Z,13.12
2017-10-20T21:55:52.094Z,13.16
2017-10-20T21:58:18.627Z,13.13
2017-10-20T22:00:45.900Z,13.11
2017-10-20T22:03:12.556Z,13.09
2017-10-20T22:08:15.264Z,13.01
2017-10-20T22:10:41.990Z,13.00
2017-10-20T22:13:08.610Z,13.10
2017-10-20T22:15:35.161Z,13.04
2017-10-20T22:18:05.784Z,13.05
2017-10-20T22:20:34.421Z,13.06
2017-10-20T22:23:30.432Z,13.07
2017-10-20T22:26:01.758Z,13.05
2017-10-20T22:28:32.920Z,13.00
2017-10-20T22:31:14.524Z,13.06
2017-10-20T22:33:48.075Z,13.06
2017-10-20T22:36:22.988Z,13.06
2017-10-20T22:38:56.606Z,13.09
2017-10-20T22:41:30.047Z,13.14
2017-10-20T22:44:01.848Z,13.15
2017-10-20T22:46:33.955Z,13.08
2017-10-20T22:49:12.717Z,13.14
2017-10-20T22:56:57.279Z,13.10
2017-10-20T22:59:31.791Z,13.17
2017-10-20T23:02:08.301Z,13.17
2017-10-20T23:04:36.545Z,13.19
2017-10-20T23:07:07.178Z,13.15
2017-10-20T23:09:55.063Z,13.21
2017-10-20T23:12:30.552Z,13.25
2017-10-20T23:15:03.875Z,13.18
2017-10-20T23:17:32.999Z,13.20
2017-10-20T23:20:04.055Z,13.21
2017-10-20T23:22:37.521Z,13.24
2017-10-20T23:25:04.174Z,13.22
2017-10-20T23:27:36.026Z,13.18
2017-10-20T23:30:09.657Z,13.17
2017-10-20T23:32:45.705Z,13.16
2017-10-20T23:35:16.682Z,13.21
2017-10-20T23:37:43.135Z,13.26
2017-10-20T23:40:21.460Z,13.24
2017-10-20T23:42:57.451Z,13.22
2017-10-20T23:45:23.887Z,13.20
2017-10-20T23:47:53.935Z,13.19
2017-10-20T23:50:21.376Z,13.09
2017-10-20T23:52:49.778Z,13.14
2017-10-20T23:55:22.496Z,13.17
2017-10-20T23:57:50.611Z,13.13
